[Jeden Montag | 1730z - 2030z | EDDN] Nürnberg Montag

Zu Eventkalender hinzugefügt: 543 Daten

Michael Wellner

1024937
RG München - Event
Bei endlich wieder angenehmeren Temperaturen erwartet Euch heute wie in jeder Woche am Nürnberg-Montag die Crew der RG München am "Albrecht-Dürer-Airport" und lädt Euch herzlich ab 1930lcl - also 1730z nach Nürnberg ein.
Wind und Wolken halten sich in Grenzen und laden alle VFR-Piloten zu einem entspannten Lokalflug ein. Für die IFR-Piloten bietet sich ein Flug nach Düsseldorf an, wo sie von der ATC-Crew bereits erwartet werden.
METAR:
EDDN 240850Z 28004KT 230V320 9999 FEW033 19/11 Q1018 NOSIG

TAF:
EDDN 240500Z 2406/2506 22004KT CAVOK BECMG 2409/2411 26009KT BECMG 2418/2420 16004KT
--

_________________VATSim-Germany / RG München / Event-Department
 
Zuletzt bearbeitet:

Michael Wellner

1024937
RG München - Event
Wie in jeder Woche am Nürnberg-Montag lädt Euch die Crew der RG München am "Albrecht-Dürer-Airport" herzlich ab 1930lcl - also 1730z nach Nürnberg ein.


METAR:
EDDN 311320Z VRB02KT 9999 FEW023TCU 17/11 Q1017 NOSIG

TAF:
EDDN 311100Z 3112/0112 22004KT 9999 SCT015 BKN035 BECMG 3112/3114 30007KT BECMG 3117/3119 36004KT TEMPO 3120/0112 3500 SHRA BKN009 BKN020CB
--

_________________VATSim-Germany / RG München / Event-Department
 
Zuletzt bearbeitet:

Michael Wellner

1024937
RG München - Event
Die Woche beginnt und wie immer am Nürnberg-Montag lädt Euch die Crew der RG München am "Albrecht-Dürer-Airport" herzlich ab 1930lcl - also 1730z nach Nürnberg ein.
Bei nur leichter Bewölkung und mäßigem Wind sind die An- und Abflüge diesmal auch wieder für unsere Sichtflug-Piloten durchaus geeignet und laden zu den ersten herbstlichen Flügen in diesem Jahr ein. Für das Dickblech bietet sich wieder der Flug nach Düsseldorf an, oder auch mal ein Flug in die Hauptstadt, wo der Flughafen Tegel kurz vor seiner Schließung auch heute nochmal besetzt ist.

METAR:
EDDN 070920Z 01005KT 290V050 9999 FEW045 18/07 Q1024 NOSIG

TAF:
EDDN 070500Z 0706/0806 VRB03KT 9999 FEW030 BECMG 0707/0709 35005KT BECMG 0716/0718 11004KT
--

_________________VATSim-Germany / RG München / Event-Department
 
Zuletzt bearbeitet:

Jan Dylla

1378091
RG München - Event


Der morgendliche Nebel hat sich verzogen und es ist inzwischen perfektes Wetter zum Fliegen! Wie passend, dass da gerade heute wieder Nürnberg-Montag ist! Die RG München lädt euch herzlich ab 1930lcl - also 1730z nach Nürnberg zum Albrecht-Dürer-Airport ein!
Bei strahlend blauem Himmel und mäßigem Wind aus Osten, könnten die Bedingungen kaum besser sein um ein paar Runden in der Kontrollzone von EDDN zu kreisen und Anflüge zu üben. Für die Kollegen, die lieber nach instrumentalen Flugregeln durch den Himmel düsen bietet sich, wie eigentlich jeden Montag, wieder die Kurzstrecke nach Düsseldorf (icao EDDL) an!
Für welche Variante ihr euch auch entscheidet - wir freuen uns auf euch, wenn es wieder heißt: ... servus, Nürnberg - Identified!

METAR:
EDDN 141550Z 08007KT 030V120 CAVOK 29/12 Q1024 NOSIG

TAF:
EDDN 141100Z 1412/1512 11008KT CAVOK BECMG 1417/1419 11003KT BECMG 1510/1512 19005KT
--
 

Michael Krause

810881
RG München - NAV
RG München - Mentor
Wie wär's mit etwas VFR im Frankenland?

Wir basteln grad an nem kml für Little NavMap für ganz Deutschland in dem alle VFR Verfahren inkl. Platzrunden für Segelflug und UL drin sind - ist noch nicht perfekt, aber denk ich schon nutzbar:
Blau ist normalerweise Motorflug, gelb Segelflug und rot UL, schwarz = Abflüge, grün = Anflüge.
Teilweise ist bei reinen Segelflug- bzw. UL-Plätzen statt gelb mit blau kodiert - das ist noch ein Problem mit dem Input. Für die RMZ und andere Lufträume sofern sie bei euch fehlen einfach das openair file von openflightmaps nehmen -> desktop.stepla funktioniert da gut. PMPs hatte ich noch aus einer anderen Quelle (Friesen?), das könnten wir aber künftig wohl auch automatisch erzeugen. More to come und work in progress - kann also auch sein, dass da kurzfristig sich mal noch am Link was ändert etc. - das würd ich gern später über die HP bereitgestellen, wenn's mal soweit erwachsen ist.

Cheers
Micha und riesen Dank an @Frank Helmschrott schon mal für die bisherigen Basteleien!
 

Michael Wellner

1024937
RG München - Event


Es ist wieder Nürnberg-Montag und die Crew der RG München lädt alle Piloten wieder am "Albrecht-Dürer-Airport" herzlich ab 1930lcl - also 1730z zu möglichst zahlreichen Flügen von und nach nach Nürnberg ein.
Was erwartet Euch heute? Natürlich wieder erstklassiger Service rund um die Lebkuchenstadt in Franken und das bei absolut wolkenfreiem Himmel. Eine gute Gelegenheit für alle VFR-Piloten, von Nürnberg aus die vielen kleinen Plätze rundherum zu erkunden und neben Lebkuchen für die bevorstehende Weihnachtszeit vielleicht auch die eine oder andere Sportbekleidung aus Herzogenaurach (EDQH) mitzubringen.
Und für die Linienflieger bietet sich wieder ein Flug nach Düsseldorf (EDDL) oder wen es weiter in den Norden zieht auch nach Hamburg (EDDH) an.

METAR:
EDDN 211420Z VRB02KT CAVOK 24/10 Q1015 NOSIG

TAF:
EDDN 211100Z 2112/2212 VRB03KT CAVOK
--

_________________VATSim-Germany / RG München / Event-Department
 
Zuletzt bearbeitet:
Oben